Terminal Aerodrome Forecast
Issued by NWS Sterling, VA

Current Version | Previous Version | Text Only | Print | Product List | Glossary Off
Versions: 1 2 3 4 5 6 7 8 9 10 11 12 13 14 15 16 17 18 19 20 21 22 23 24 25 26 27 28 29 30 31 32

000
FTUS41 KLWX 160542
TAFIAD
TAF
KIAD 160542Z 1606/1712 22010G17KT P6SM BKN200
     FM161000 24009KT 6SM -SHRA OVC050
     FM161400 29007KT P6SM OVC060
     FM161800 30010KT 6SM -SHRA OVC045
     FM162100 32018G29KT P6SM OVC045
     FM170400 33009KT P6SM FEW250=

USA.gov is the U.S. government's official web portal to all federal, state and local government web resources and services.